sensor_id;sensor_type;location;lat;lon;timestamp;temperature;humidity
44723;DHT22;30451;48.638;10.624;2023-03-23T00:02:03;25.00;48.30
44723;DHT22;30451;48.638;10.624;2023-03-23T00:04:28;24.90;48.30
44723;DHT22;30451;48.638;10.624;2023-03-23T00:06:57;24.90;48.30
44723;DHT22;30451;48.638;10.624;2023-03-23T00:09:22;24.90;48.30
44723;DHT22;30451;48.638;10.624;2023-03-23T00:11:50;24.90;48.30
44723;DHT22;30451;48.638;10.624;2023-03-23T00:14:16;24.90;48.30
44723;DHT22;30451;48.638;10.624;2023-03-23T00:16:47;24.90;48.40
44723;DHT22;30451;48.638;10.624;2023-03-23T00:19:15;24.80;48.30
44723;DHT22;30451;48.638;10.624;2023-03-23T00:21:42;24.80;48.30
44723;DHT22;30451;48.638;10.624;2023-03-23T00:24:16;24.80;48.30
44723;DHT22;30451;48.638;10.624;2023-03-23T00:26:46;24.80;48.30
44723;DHT22;30451;48.638;10.624;2023-03-23T00:29:16;24.80;48.40
44723;DHT22;30451;48.638;10.624;2023-03-23T00:31:43;24.80;48.40
44723;DHT22;30451;48.638;10.624;2023-03-23T00:34:13;24.80;48.40
44723;DHT22;30451;48.638;10.624;2023-03-23T00:36:48;24.80;48.40
44723;DHT22;30451;48.638;10.624;2023-03-23T00:39:14;24.80;48.40
44723;DHT22;30451;48.638;10.624;2023-03-23T00:41:42;24.80;48.50
44723;DHT22;30451;48.638;10.624;2023-03-23T00:44:08;24.70;48.40
44723;DHT22;30451;48.638;10.624;2023-03-23T00:46:34;24.70;48.40
44723;DHT22;30451;48.638;10.624;2023-03-23T00:49:10;24.70;48.50
44723;DHT22;30451;48.638;10.624;2023-03-23T00:51:38;24.70;48.50
44723;DHT22;30451;48.638;10.624;2023-03-23T00:54:03;24.70;48.50
44723;DHT22;30451;48.638;10.624;2023-03-23T00:56:29;24.70;48.50
44723;DHT22;30451;48.638;10.624;2023-03-23T00:58:55;24.60;48.50
44723;DHT22;30451;48.638;10.624;2023-03-23T01:01:20;24.60;48.50
44723;DHT22;30451;48.638;10.624;2023-03-23T01:03:46;24.60;48.50
44723;DHT22;30451;48.638;10.624;2023-03-23T01:06:12;24.60;48.60
44723;DHT22;30451;48.638;10.624;2023-03-23T01:08:41;24.60;48.50
44723;DHT22;30451;48.638;10.624;2023-03-23T01:11:12;24.50;48.50
44723;DHT22;30451;48.638;10.624;2023-03-23T01:13:39;24.50;48.50
44723;DHT22;30451;48.638;10.624;2023-03-23T01:16:06;24.50;48.50
44723;DHT22;30451;48.638;10.624;2023-03-23T01:18:32;24.50;48.50
44723;DHT22;30451;48.638;10.624;2023-03-23T01:20:57;24.50;48.50
44723;DHT22;30451;48.638;10.624;2023-03-23T01:23:23;24.50;48.60
44723;DHT22;30451;48.638;10.624;2023-03-23T01:25:48;24.50;48.60
44723;DHT22;30451;48.638;10.624;2023-03-23T01:28:15;24.50;48.60
44723;DHT22;30451;48.638;10.624;2023-03-23T01:30:40;24.50;48.60
44723;DHT22;30451;48.638;10.624;2023-03-23T01:33:06;24.50;48.60
44723;DHT22;30451;48.638;10.624;2023-03-23T01:35:32;24.50;48.70
44723;DHT22;30451;48.638;10.624;2023-03-23T01:37:57;24.40;48.60
44723;DHT22;30451;48.638;10.624;2023-03-23T01:40:23;24.40;48.60
44723;DHT22;30451;48.638;10.624;2023-03-23T01:42:51;24.40;48.60
44723;DHT22;30451;48.638;10.624;2023-03-23T01:48:08;24.40;48.70
44723;DHT22;30451;48.638;10.624;2023-03-23T01:50:40;24.40;48.70
44723;DHT22;30451;48.638;10.624;2023-03-23T01:53:10;24.30;48.70
44723;DHT22;30451;48.638;10.624;2023-03-23T01:55:38;24.40;48.70
44723;DHT22;30451;48.638;10.624;2023-03-23T01:58:06;24.30;48.60
44723;DHT22;30451;48.638;10.624;2023-03-23T02:00:33;24.30;48.70
44723;DHT22;30451;48.638;10.624;2023-03-23T02:03:00;24.30;48.70
44723;DHT22;30451;48.638;10.624;2023-03-23T02:05:40;24.30;48.70
44723;DHT22;30451;48.638;10.624;2023-03-23T02:08:07;24.30;48.70
44723;DHT22;30451;48.638;10.624;2023-03-23T02:10:36;24.30;48.70
44723;DHT22;30451;48.638;10.624;2023-03-23T02:13:04;24.30;48.70
44723;DHT22;30451;48.638;10.624;2023-03-23T02:18:16;24.30;49.30
44723;DHT22;30451;48.638;10.624;2023-03-23T02:26:44;24.20;48.70
44723;DHT22;30451;48.638;10.624;2023-03-23T02:34:53;24.20;48.80
44723;DHT22;30451;48.638;10.624;2023-03-23T02:37:27;24.20;48.80
44723;DHT22;30451;48.638;10.624;2023-03-23T02:40:05;24.20;49.30
44723;DHT22;30451;48.638;10.624;2023-03-23T02:42:41;24.20;48.80
44723;DHT22;30451;48.638;10.624;2023-03-23T02:45:10;24.20;48.80
44723;DHT22;30451;48.638;10.624;2023-03-23T02:47:38;24.20;48.80
44723;DHT22;30451;48.638;10.624;2023-03-23T02:50:08;24.10;48.80
44723;DHT22;30451;48.638;10.624;2023-03-23T02:52:37;24.10;48.80
44723;DHT22;30451;48.638;10.624;2023-03-23T02:55:05;24.10;48.80
44723;DHT22;30451;48.638;10.624;2023-03-23T02:57:31;24.10;49.30
44723;DHT22;30451;48.638;10.624;2023-03-23T02:59:57;24.10;48.80
44723;DHT22;30451;48.638;10.624;2023-03-23T03:02:23;24.10;48.80
44723;DHT22;30451;48.638;10.624;2023-03-23T03:15:42;24.10;48.90
44723;DHT22;30451;48.638;10.624;2023-03-23T03:20:51;24.00;48.90
44723;DHT22;30451;48.638;10.624;2023-03-23T03:23:20;24.00;48.90
44723;DHT22;30451;48.638;10.624;2023-03-23T03:25:47;24.00;48.90
44723;DHT22;30451;48.638;10.624;2023-03-23T03:28:19;24.00;48.90
44723;DHT22;30451;48.638;10.624;2023-03-23T03:30:49;24.00;48.90
44723;DHT22;30451;48.638;10.624;2023-03-23T03:33:19;24.00;48.90
44723;DHT22;30451;48.638;10.624;2023-03-23T03:35:46;24.00;48.90
44723;DHT22;30451;48.638;10.624;2023-03-23T03:38:13;24.00;48.90
44723;DHT22;30451;48.638;10.624;2023-03-23T03:40:39;24.00;48.90
44723;DHT22;30451;48.638;10.624;2023-03-23T03:43:05;24.00;49.00
44723;DHT22;30451;48.638;10.624;2023-03-23T03:45:32;24.00;49.00
44723;DHT22;30451;48.638;10.624;2023-03-23T03:47:58;24.00;48.90
44723;DHT22;30451;48.638;10.624;2023-03-23T03:50:23;23.90;48.90
44723;DHT22;30451;48.638;10.624;2023-03-23T03:52:49;23.90;49.00
44723;DHT22;30451;48.638;10.624;2023-03-23T03:55:14;23.90;49.00
44723;DHT22;30451;48.638;10.624;2023-03-23T03:57:42;23.90;48.90
44723;DHT22;30451;48.638;10.624;2023-03-23T04:00:09;23.90;48.90
44723;DHT22;30451;48.638;10.624;2023-03-23T04:02:46;23.90;48.90
44723;DHT22;30451;48.638;10.624;2023-03-23T04:05:23;23.90;48.90
44723;DHT22;30451;48.638;10.624;2023-03-23T04:07:49;23.90;49.40
44723;DHT22;30451;48.638;10.624;2023-03-23T04:10:17;23.90;48.90
44723;DHT22;30451;48.638;10.624;2023-03-23T04:12:45;23.90;49.00
44723;DHT22;30451;48.638;10.624;2023-03-23T04:15:11;23.90;48.90
44723;DHT22;30451;48.638;10.624;2023-03-23T04:17:37;23.90;49.00
44723;DHT22;30451;48.638;10.624;2023-03-23T04:20:04;23.90;49.00
44723;DHT22;30451;48.638;10.624;2023-03-23T04:22:38;23.90;49.00
44723;DHT22;30451;48.638;10.624;2023-03-23T04:25:05;23.80;48.90
44723;DHT22;30451;48.638;10.624;2023-03-23T04:27:32;23.80;49.00
44723;DHT22;30451;48.638;10.624;2023-03-23T04:29:58;23.80;49.00
44723;DHT22;30451;48.638;10.624;2023-03-23T04:32:25;23.80;49.00
44723;DHT22;30451;48.638;10.624;2023-03-23T04:34:57;23.80;49.00
44723;DHT22;30451;48.638;10.624;2023-03-23T04:37:25;23.80;49.00
44723;DHT22;30451;48.638;10.624;2023-03-23T04:39:59;23.80;49.00
44723;DHT22;30451;48.638;10.624;2023-03-23T04:42:34;23.80;49.00
44723;DHT22;30451;48.638;10.624;2023-03-23T04:45:00;23.80;49.00
44723;DHT22;30451;48.638;10.624;2023-03-23T04:47:27;23.80;49.00
44723;DHT22;30451;48.638;10.624;2023-03-23T04:49:56;23.80;49.00
44723;DHT22;30451;48.638;10.624;2023-03-23T04:52:24;23.80;49.00
44723;DHT22;30451;48.638;10.624;2023-03-23T04:54:54;23.80;49.00
44723;DHT22;30451;48.638;10.624;2023-03-23T04:57:22;23.70;49.00
44723;DHT22;30451;48.638;10.624;2023-03-23T04:59:48;23.70;49.00
44723;DHT22;30451;48.638;10.624;2023-03-23T05:02:14;23.80;49.00
44723;DHT22;30451;48.638;10.624;2023-03-23T05:04:40;23.70;49.00
44723;DHT22;30451;48.638;10.624;2023-03-23T05:07:07;23.70;49.00
44723;DHT22;30451;48.638;10.624;2023-03-23T05:09:33;23.70;49.00
44723;DHT22;30451;48.638;10.624;2023-03-23T05:12:04;23.70;49.10
44723;DHT22;30451;48.638;10.624;2023-03-23T05:14:30;23.70;49.00
44723;DHT22;30451;48.638;10.624;2023-03-23T05:16:56;23.70;49.00
44723;DHT22;30451;48.638;10.624;2023-03-23T05:19:21;23.70;49.10
44723;DHT22;30451;48.638;10.624;2023-03-23T05:21:47;23.70;49.10
44723;DHT22;30451;48.638;10.624;2023-03-23T05:24:13;23.70;49.10
44723;DHT22;30451;48.638;10.624;2023-03-23T05:26:39;23.70;49.10
44723;DHT22;30451;48.638;10.624;2023-03-23T05:29:04;23.70;49.20
44723;DHT22;30451;48.638;10.624;2023-03-23T05:31:30;23.70;49.20
44723;DHT22;30451;48.638;10.624;2023-03-23T05:33:56;23.60;49.10
44723;DHT22;30451;48.638;10.624;2023-03-23T05:36:21;23.70;49.20
44723;DHT22;30451;48.638;10.624;2023-03-23T05:38:50;23.60;49.10
44723;DHT22;30451;48.638;10.624;2023-03-23T05:41:16;23.70;49.10
44723;DHT22;30451;48.638;10.624;2023-03-23T05:43:42;23.60;49.00
44723;DHT22;30451;48.638;10.624;2023-03-23T05:46:08;23.60;48.90
44723;DHT22;30451;48.638;10.624;2023-03-23T05:48:34;23.60;48.90
44723;DHT22;30451;48.638;10.624;2023-03-23T05:51:00;23.60;48.90
44723;DHT22;30451;48.638;10.624;2023-03-23T05:53:26;23.60;48.90
44723;DHT22;30451;48.638;10.624;2023-03-23T05:55:52;23.60;48.90
44723;DHT22;30451;48.638;10.624;2023-03-23T05:58:18;23.60;48.90
44723;DHT22;30451;48.638;10.624;2023-03-23T06:00:44;23.60;49.00
44723;DHT22;30451;48.638;10.624;2023-03-23T06:03:11;23.60;48.90
44723;DHT22;30451;48.638;10.624;2023-03-23T06:05:45;23.60;49.00
44723;DHT22;30451;48.638;10.624;2023-03-23T06:08:11;23.50;48.90
44723;DHT22;30451;48.638;10.624;2023-03-23T06:10:37;23.60;49.00
44723;DHT22;30451;48.638;10.624;2023-03-23T06:13:04;23.50;48.90
44723;DHT22;30451;48.638;10.624;2023-03-23T06:15:30;23.50;48.90
44723;DHT22;30451;48.638;10.624;2023-03-23T06:18:04;23.60;48.90
44723;DHT22;30451;48.638;10.624;2023-03-23T06:20:31;23.50;48.90
44723;DHT22;30451;48.638;10.624;2023-03-23T06:22:58;23.50;48.90
44723;DHT22;30451;48.638;10.624;2023-03-23T06:25:23;23.50;48.90
44723;DHT22;30451;48.638;10.624;2023-03-23T06:27:49;23.50;49.00
44723;DHT22;30451;48.638;10.624;2023-03-23T06:30:17;23.50;49.00
44723;DHT22;30451;48.638;10.624;2023-03-23T06:32:43;23.60;48.90
44723;DHT22;30451;48.638;10.624;2023-03-23T06:35:12;23.50;49.40
44723;DHT22;30451;48.638;10.624;2023-03-23T06:37:38;23.50;48.80
44723;DHT22;30451;48.638;10.624;2023-03-23T06:40:05;23.50;48.70
44723;DHT22;30451;48.638;10.624;2023-03-23T06:42:35;23.50;48.70
44723;DHT22;30451;48.638;10.624;2023-03-23T06:45:03;23.50;49.20
44723;DHT22;30451;48.638;10.624;2023-03-23T06:47:29;23.50;48.70
44723;DHT22;30451;48.638;10.624;2023-03-23T06:49:55;23.50;48.70
44723;DHT22;30451;48.638;10.624;2023-03-23T06:52:22;23.50;48.70
44723;DHT22;30451;48.638;10.624;2023-03-23T06:54:49;23.40;48.60
44723;DHT22;30451;48.638;10.624;2023-03-23T06:57:14;23.40;48.60
44723;DHT22;30451;48.638;10.624;2023-03-23T06:59:41;23.50;48.60
44723;DHT22;30451;48.638;10.624;2023-03-23T07:02:12;23.50;48.60
44723;DHT22;30451;48.638;10.624;2023-03-23T07:04:39;23.50;48.60
44723;DHT22;30451;48.638;10.624;2023-03-23T07:07:09;23.40;48.50
44723;DHT22;30451;48.638;10.624;2023-03-23T07:09:36;23.40;47.50
44723;DHT22;30451;48.638;10.624;2023-03-23T07:12:02;23.40;46.70
44723;DHT22;30451;48.638;10.624;2023-03-23T07:14:28;23.40;46.10
44723;DHT22;30451;48.638;10.624;2023-03-23T07:16:54;23.30;45.70
44723;DHT22;30451;48.638;10.624;2023-03-23T07:19:19;23.40;45.50
44723;DHT22;30451;48.638;10.624;2023-03-23T07:21:45;23.40;45.90
44723;DHT22;30451;48.638;10.624;2023-03-23T07:24:12;23.40;45.70
44723;DHT22;30451;48.638;10.624;2023-03-23T07:26:41;23.40;45.70
44723;DHT22;30451;48.638;10.624;2023-03-23T07:29:08;23.30;45.60
44723;DHT22;30451;48.638;10.624;2023-03-23T07:31:34;23.30;45.80
44723;DHT22;30451;48.638;10.624;2023-03-23T07:34:00;23.30;46.30
44723;DHT22;30451;48.638;10.624;2023-03-23T07:36:26;23.40;45.90
44723;DHT22;30451;48.638;10.624;2023-03-23T07:38:52;23.30;46.60
44723;DHT22;30451;48.638;10.624;2023-03-23T07:41:18;23.30;46.30
44723;DHT22;30451;48.638;10.624;2023-03-23T07:43:45;23.40;46.30
44723;DHT22;30451;48.638;10.624;2023-03-23T07:46:11;23.30;46.40
44723;DHT22;30451;48.638;10.624;2023-03-23T07:48:37;23.30;46.40
44723;DHT22;30451;48.638;10.624;2023-03-23T07:51:03;23.30;46.40
44723;DHT22;30451;48.638;10.624;2023-03-23T07:53:29;23.30;46.60
44723;DHT22;30451;48.638;10.624;2023-03-23T07:55:54;23.30;46.60
44723;DHT22;30451;48.638;10.624;2023-03-23T07:58:20;23.30;46.60
44723;DHT22;30451;48.638;10.624;2023-03-23T08:00:46;23.30;46.70
44723;DHT22;30451;48.638;10.624;2023-03-23T08:03:14;23.40;46.80
44723;DHT22;30451;48.638;10.624;2023-03-23T08:05:41;23.30;46.80
44723;DHT22;30451;48.638;10.624;2023-03-23T08:08:09;23.30;46.90
44723;DHT22;30451;48.638;10.624;2023-03-23T08:10:35;23.30;46.90
44723;DHT22;30451;48.638;10.624;2023-03-23T08:13:02;23.30;47.00
44723;DHT22;30451;48.638;10.624;2023-03-23T08:15:29;23.30;47.00
44723;DHT22;30451;48.638;10.624;2023-03-23T08:17:55;23.30;47.10
44723;DHT22;30451;48.638;10.624;2023-03-23T08:20:21;23.30;47.10
44723;DHT22;30451;48.638;10.624;2023-03-23T08:22:55;23.30;47.10
44723;DHT22;30451;48.638;10.624;2023-03-23T08:25:21;23.30;47.20
44723;DHT22;30451;48.638;10.624;2023-03-23T08:27:47;23.30;47.20
44723;DHT22;30451;48.638;10.624;2023-03-23T08:30:16;23.30;47.30
44723;DHT22;30451;48.638;10.624;2023-03-23T08:32:43;23.30;47.30
44723;DHT22;30451;48.638;10.624;2023-03-23T08:35:10;23.30;47.30
44723;DHT22;30451;48.638;10.624;2023-03-23T08:37:36;23.30;47.40
44723;DHT22;30451;48.638;10.624;2023-03-23T08:40:04;23.30;47.90
44723;DHT22;30451;48.638;10.624;2023-03-23T08:42:40;23.30;47.40
44723;DHT22;30451;48.638;10.624;2023-03-23T08:45:07;23.30;47.90
44723;DHT22;30451;48.638;10.624;2023-03-23T08:47:34;23.30;47.50
44723;DHT22;30451;48.638;10.624;2023-03-23T08:50:01;23.20;47.50
44723;DHT22;30451;48.638;10.624;2023-03-23T08:52:27;23.30;47.50
44723;DHT22;30451;48.638;10.624;2023-03-23T08:54:54;23.30;47.50
44723;DHT22;30451;48.638;10.624;2023-03-23T08:57:20;23.30;48.10
44723;DHT22;30451;48.638;10.624;2023-03-23T08:59:46;23.20;47.50
44723;DHT22;30451;48.638;10.624;2023-03-23T09:02:12;23.30;47.60
44723;DHT22;30451;48.638;10.624;2023-03-23T09:04:39;23.30;47.60
44723;DHT22;30451;48.638;10.624;2023-03-23T09:07:05;23.30;47.70
44723;DHT22;30451;48.638;10.624;2023-03-23T09:09:31;23.20;47.60
44723;DHT22;30451;48.638;10.624;2023-03-23T09:11:59;23.30;47.70
44723;DHT22;30451;48.638;10.624;2023-03-23T09:14:25;23.20;47.60
44723;DHT22;30451;48.638;10.624;2023-03-23T09:16:52;23.30;47.70
44723;DHT22;30451;48.638;10.624;2023-03-23T09:19:17;23.30;47.70
44723;DHT22;30451;48.638;10.624;2023-03-23T09:21:43;23.20;47.70
44723;DHT22;30451;48.638;10.624;2023-03-23T09:24:11;23.30;47.80
44723;DHT22;30451;48.638;10.624;2023-03-23T09:26:36;23.30;47.80
44723;DHT22;30451;48.638;10.624;2023-03-23T09:29:03;23.30;47.80
44723;DHT22;30451;48.638;10.624;2023-03-23T09:31:30;23.20;47.80
44723;DHT22;30451;48.638;10.624;2023-03-23T09:33:57;23.30;47.90
44723;DHT22;30451;48.638;10.624;2023-03-23T09:36:24;23.20;47.80
44723;DHT22;30451;48.638;10.624;2023-03-23T09:38:51;23.20;47.80
44723;DHT22;30451;48.638;10.624;2023-03-23T09:44:26;23.30;47.90
44723;DHT22;30451;48.638;10.624;2023-03-23T09:49:36;23.20;47.90
44723;DHT22;30451;48.638;10.624;2023-03-23T09:52:17;23.20;47.90
44723;DHT22;30451;48.638;10.624;2023-03-23T09:54:46;23.20;47.90
44723;DHT22;30451;48.638;10.624;2023-03-23T09:57:25;23.20;47.90
44723;DHT22;30451;48.638;10.624;2023-03-23T10:00:03;23.20;47.90
44723;DHT22;30451;48.638;10.624;2023-03-23T10:02:43;23.20;47.90
44723;DHT22;30451;48.638;10.624;2023-03-23T10:05:31;23.20;47.90
44723;DHT22;30451;48.638;10.624;2023-03-23T10:07:59;23.20;47.90
44723;DHT22;30451;48.638;10.624;2023-03-23T10:15:56;23.20;48.00
44723;DHT22;30451;48.638;10.624;2023-03-23T10:18:37;23.20;48.00
44723;DHT22;30451;48.638;10.624;2023-03-23T10:21:04;23.20;48.00
44723;DHT22;30451;48.638;10.624;2023-03-23T10:26:14;23.20;48.00
44723;DHT22;30451;48.638;10.624;2023-03-23T10:28:44;23.20;48.00
44723;DHT22;30451;48.638;10.624;2023-03-23T10:31:14;23.20;48.00
44723;DHT22;30451;48.638;10.624;2023-03-23T10:33:49;23.30;48.10
44723;DHT22;30451;48.638;10.624;2023-03-23T10:36:27;23.20;48.00
44723;DHT22;30451;48.638;10.624;2023-03-23T10:41:27;23.20;48.10
44723;DHT22;30451;48.638;10.624;2023-03-23T10:43:52;23.20;48.10
44723;DHT22;30451;48.638;10.624;2023-03-23T10:46:32;23.20;48.10
44723;DHT22;30451;48.638;10.624;2023-03-23T10:49:02;23.20;48.10
44723;DHT22;30451;48.638;10.624;2023-03-23T10:51:37;23.20;48.10
44723;DHT22;30451;48.638;10.624;2023-03-23T10:54:05;23.20;48.10
44723;DHT22;30451;48.638;10.624;2023-03-23T10:56:43;23.30;48.20
44723;DHT22;30451;48.638;10.624;2023-03-23T10:59:30;23.20;48.10
44723;DHT22;30451;48.638;10.624;2023-03-23T11:02:00;23.20;48.10
44723;DHT22;30451;48.638;10.624;2023-03-23T11:04:30;23.20;48.10
44723;DHT22;30451;48.638;10.624;2023-03-23T11:07:00;23.20;48.20
44723;DHT22;30451;48.638;10.624;2023-03-23T11:09:35;23.30;48.20
44723;DHT22;30451;48.638;10.624;2023-03-23T11:12:02;23.20;48.10
44723;DHT22;30451;48.638;10.624;2023-03-23T11:14:30;23.20;48.20
44723;DHT22;30451;48.638;10.624;2023-03-23T11:16:58;23.20;48.20
44723;DHT22;30451;48.638;10.624;2023-03-23T11:19:33;23.20;48.20
44723;DHT22;30451;48.638;10.624;2023-03-23T11:24:33;23.20;48.20
44723;DHT22;30451;48.638;10.624;2023-03-23T11:26:59;23.20;48.30
44723;DHT22;30451;48.638;10.624;2023-03-23T11:29:27;23.30;48.30
44723;DHT22;30451;48.638;10.624;2023-03-23T11:32:04;23.20;48.20
44723;DHT22;30451;48.638;10.624;2023-03-23T11:34:35;23.20;48.30
44723;DHT22;30451;48.638;10.624;2023-03-23T11:39:57;23.20;48.30
44723;DHT22;30451;48.638;10.624;2023-03-23T11:42:25;23.20;48.30
44723;DHT22;30451;48.638;10.624;2023-03-23T11:44:54;23.30;48.30
44723;DHT22;30451;48.638;10.624;2023-03-23T11:47:34;23.30;48.40
44723;DHT22;30451;48.638;10.624;2023-03-23T11:50:17;23.20;48.30
44723;DHT22;30451;48.638;10.624;2023-03-23T11:52:47;23.20;48.30
44723;DHT22;30451;48.638;10.624;2023-03-23T11:55:25;23.30;48.30
44723;DHT22;30451;48.638;10.624;2023-03-23T11:57:52;23.30;48.30
44723;DHT22;30451;48.638;10.624;2023-03-23T12:00:21;23.30;48.90
44723;DHT22;30451;48.638;10.624;2023-03-23T12:03:01;23.30;48.40
44723;DHT22;30451;48.638;10.624;2023-03-23T12:05:45;23.30;48.40
44723;DHT22;30451;48.638;10.624;2023-03-23T12:23:21;23.30;48.50
44723;DHT22;30451;48.638;10.624;2023-03-23T12:36:21;23.20;48.50
44723;DHT22;30451;48.638;10.624;2023-03-23T12:38:56;23.30;48.60
44723;DHT22;30451;48.638;10.624;2023-03-23T12:44:20;23.30;48.60
44723;DHT22;30451;48.638;10.624;2023-03-23T12:49:33;23.30;48.60
44723;DHT22;30451;48.638;10.624;2023-03-23T12:52:11;23.30;48.60
44723;DHT22;30451;48.638;10.624;2023-03-23T12:54:59;23.30;48.60
44723;DHT22;30451;48.638;10.624;2023-03-23T13:00:54;23.30;48.60
44723;DHT22;30451;48.638;10.624;2023-03-23T13:03:14;23.30;48.60
44723;DHT22;30451;48.638;10.624;2023-03-23T13:09:03;23.30;48.60
44723;DHT22;30451;48.638;10.624;2023-03-23T13:11:37;23.30;48.70
44723;DHT22;30451;48.638;10.624;2023-03-23T13:17:34;23.30;48.70
44723;DHT22;30451;48.638;10.624;2023-03-23T13:23:28;23.30;48.70
44723;DHT22;30451;48.638;10.624;2023-03-23T13:25:54;23.30;48.70
44723;DHT22;30451;48.638;10.624;2023-03-23T13:28:29;23.30;48.70
44723;DHT22;30451;48.638;10.624;2023-03-23T13:31:20;23.30;49.30
44723;DHT22;30451;48.638;10.624;2023-03-23T13:33:53;23.30;48.80
44723;DHT22;30451;48.638;10.624;2023-03-23T13:36:31;23.30;48.80
44723;DHT22;30451;48.638;10.624;2023-03-23T13:39:00;23.30;49.30
44723;DHT22;30451;48.638;10.624;2023-03-23T13:41:27;23.30;49.30
44723;DHT22;30451;48.638;10.624;2023-03-23T13:44:04;23.30;48.80
44723;DHT22;30451;48.638;10.624;2023-03-23T13:46:30;23.30;48.80
44723;DHT22;30451;48.638;10.624;2023-03-23T13:51:52;23.40;48.90
44723;DHT22;30451;48.638;10.624;2023-03-23T13:54:31;23.30;48.80
44723;DHT22;30451;48.638;10.624;2023-03-23T13:57:02;23.30;48.80
44723;DHT22;30451;48.638;10.624;2023-03-23T13:59:46;23.30;48.80
44723;DHT22;30451;48.638;10.624;2023-03-23T14:02:39;23.40;49.40
44723;DHT22;30451;48.638;10.624;2023-03-23T14:05:42;23.40;48.80
44723;DHT22;30451;48.638;10.624;2023-03-23T14:11:10;23.30;48.80
44723;DHT22;30451;48.638;10.624;2023-03-23T14:13:43;23.30;48.80
44723;DHT22;30451;48.638;10.624;2023-03-23T14:16:25;23.30;48.80
44723;DHT22;30451;48.638;10.624;2023-03-23T14:18:56;23.30;48.80
44723;DHT22;30451;48.638;10.624;2023-03-23T14:24:17;23.30;48.90
44723;DHT22;30451;48.638;10.624;2023-03-23T14:26:43;23.30;48.90
44723;DHT22;30451;48.638;10.624;2023-03-23T14:29:12;23.30;48.80
44723;DHT22;30451;48.638;10.624;2023-03-23T14:31:38;23.30;48.80
44723;DHT22;30451;48.638;10.624;2023-03-23T14:34:14;23.30;48.90
44723;DHT22;30451;48.638;10.624;2023-03-23T14:36:40;23.30;48.90
44723;DHT22;30451;48.638;10.624;2023-03-23T14:39:24;23.30;48.90
44723;DHT22;30451;48.638;10.624;2023-03-23T14:41:52;23.30;48.90
44723;DHT22;30451;48.638;10.624;2023-03-23T14:44:26;23.30;48.90
44723;DHT22;30451;48.638;10.624;2023-03-23T14:46:52;23.40;48.90
44723;DHT22;30451;48.638;10.624;2023-03-23T14:49:26;23.30;48.90
44723;DHT22;30451;48.638;10.624;2023-03-23T14:51:54;23.30;48.90
44723;DHT22;30451;48.638;10.624;2023-03-23T14:54:26;23.30;48.90
44723;DHT22;30451;48.638;10.624;2023-03-23T14:56:52;23.30;48.90
44723;DHT22;30451;48.638;10.624;2023-03-23T14:59:18;23.30;48.90
44723;DHT22;30451;48.638;10.624;2023-03-23T15:01:47;23.30;48.90
44723;DHT22;30451;48.638;10.624;2023-03-23T15:04:24;23.30;48.90
44723;DHT22;30451;48.638;10.624;2023-03-23T15:06:55;23.30;48.90
44723;DHT22;30451;48.638;10.624;2023-03-23T15:09:24;23.30;49.00
44723;DHT22;30451;48.638;10.624;2023-03-23T15:11:59;23.30;48.90
44723;DHT22;30451;48.638;10.624;2023-03-23T15:14:35;23.30;48.90
44723;DHT22;30451;48.638;10.624;2023-03-23T15:17:18;23.30;48.90
44723;DHT22;30451;48.638;10.624;2023-03-23T15:19:44;23.30;48.90
44723;DHT22;30451;48.638;10.624;2023-03-23T15:22:26;23.30;48.90
44723;DHT22;30451;48.638;10.624;2023-03-23T15:25:00;23.30;48.90
44723;DHT22;30451;48.638;10.624;2023-03-23T15:27:39;23.30;48.90
44723;DHT22;30451;48.638;10.624;2023-03-23T15:30:37;23.30;48.90
44723;DHT22;30451;48.638;10.624;2023-03-23T15:33:12;23.30;49.00
44723;DHT22;30451;48.638;10.624;2023-03-23T15:35:40;23.30;49.00
44723;DHT22;30451;48.638;10.624;2023-03-23T15:38:19;23.30;49.00
44723;DHT22;30451;48.638;10.624;2023-03-23T15:40:49;23.30;49.00
44723;DHT22;30451;48.638;10.624;2023-03-23T15:43:25;23.30;49.10
44723;DHT22;30451;48.638;10.624;2023-03-23T15:46:04;23.30;49.10
44723;DHT22;30451;48.638;10.624;2023-03-23T15:48:33;23.40;49.10
44723;DHT22;30451;48.638;10.624;2023-03-23T15:50:59;23.30;49.10
44723;DHT22;30451;48.638;10.624;2023-03-23T15:53:34;23.30;49.10
44723;DHT22;30451;48.638;10.624;2023-03-23T15:56:03;23.40;49.10
44723;DHT22;30451;48.638;10.624;2023-03-23T15:58:29;23.30;49.10
44723;DHT22;30451;48.638;10.624;2023-03-23T16:00:56;23.30;49.10
44723;DHT22;30451;48.638;10.624;2023-03-23T16:03:27;23.40;49.10
44723;DHT22;30451;48.638;10.624;2023-03-23T16:05:54;23.40;49.70
44723;DHT22;30451;48.638;10.624;2023-03-23T16:08:22;23.40;49.10
44723;DHT22;30451;48.638;10.624;2023-03-23T16:10:48;23.40;49.00
44723;DHT22;30451;48.638;10.624;2023-03-23T16:13:13;23.40;49.00
44723;DHT22;30451;48.638;10.624;2023-03-23T16:15:39;23.40;48.90
44723;DHT22;30451;48.638;10.624;2023-03-23T16:18:05;23.40;49.00
44723;DHT22;30451;48.638;10.624;2023-03-23T16:20:31;23.40;49.00
44723;DHT22;30451;48.638;10.624;2023-03-23T16:22:58;23.40;49.30
44723;DHT22;30451;48.638;10.624;2023-03-23T16:25:23;23.40;49.30
44723;DHT22;30451;48.638;10.624;2023-03-23T16:27:49;23.40;49.20
44723;DHT22;30451;48.638;10.624;2023-03-23T16:30:26;23.40;49.20
44723;DHT22;30451;48.638;10.624;2023-03-23T16:32:53;23.40;49.10
44723;DHT22;30451;48.638;10.624;2023-03-23T16:35:19;23.40;49.20
44723;DHT22;30451;48.638;10.624;2023-03-23T16:37:50;23.40;49.20
44723;DHT22;30451;48.638;10.624;2023-03-23T16:40:18;23.40;49.80
44723;DHT22;30451;48.638;10.624;2023-03-23T16:42:44;23.40;49.20
44723;DHT22;30451;48.638;10.624;2023-03-23T16:45:11;23.40;49.20
44723;DHT22;30451;48.638;10.624;2023-03-23T16:47:38;23.40;49.20
44723;DHT22;30451;48.638;10.624;2023-03-23T16:50:07;23.40;49.20
44723;DHT22;30451;48.638;10.624;2023-03-23T16:52:34;23.40;49.20
44723;DHT22;30451;48.638;10.624;2023-03-23T16:54:59;23.40;49.20
44723;DHT22;30451;48.638;10.624;2023-03-23T16:57:25;23.40;49.20
44723;DHT22;30451;48.638;10.624;2023-03-23T16:59:51;23.40;49.20
44723;DHT22;30451;48.638;10.624;2023-03-23T17:02:17;23.40;49.20
44723;DHT22;30451;48.638;10.624;2023-03-23T17:04:44;23.40;49.20
44723;DHT22;30451;48.638;10.624;2023-03-23T17:07:11;23.40;49.20
44723;DHT22;30451;48.638;10.624;2023-03-23T17:09:37;23.40;49.10
44723;DHT22;30451;48.638;10.624;2023-03-23T17:12:03;23.40;49.10
44723;DHT22;30451;48.638;10.624;2023-03-23T17:14:29;23.40;49.10